Search for airport 
image banner adimage banner adimage banner ad
image banner ad

CL51 - Santa Rosa Memorial Hospital

Located in Santa Rosa, United States

ICAO - CL51, IATA -

Data provided by Airmate  

General information

Coordinates: N38°26'37" W122°42'5"
Elevation is 208 feet MSL.
Magnetic variation is 16° East
View others Airports in California

Operational data

Special qualification required
Current time UTC:
Current local time:
METAR: KSTS 240853Z AUTO 19003KT 10SM OVC009 12/11 A3000 RMK AO2 SLP153 T01220106 50007
TAF: KSTS 240901Z 2409/2506 VRB03KT P6SM OVC009 FM241100 VRB03KT 6SM BR OVC009 FM241700 VRB05KT P6SM FEW014 FM242100 19009KT P6SM SKC FM250400 15005KT P6SM FEW008
View NOTAMs / SUP AIP / TFR affecting this airport [VIEW]
Communications frequencies: [VIEW]

Runways:

Airport contact information

Address: Santa Rosa United States

Satellite view of CL51